トロムソ の空港の天気 - METARとTAF

トロムソ空港 ( ENTC / TOS ) - ノルウェー トロムス県トロムソ
飛行場実況気象(Metar)
観測時間09/23 12:50 CEST (09/23 10:50 UTC)
風向・風速西南西 3m/s
視程10km以上
天気現象
なし
気温10℃
湿度76%
気圧1027hPa
METARENTC 231050Z 24005KT CAVOK 10/06 Q1027 NOSIG RMK WIND 2600FT 23008KT
過去の天気等 Google飛行場航空写真 Wunderground天気予報

過去48時間のMETAR

飛行場予報(TAF)
発表時間: -
23日8時 CEST ~ 24日8時 CEST に一時的に
風向・風速南南西 6m/s
TAF ENTC 2306/2406 VRB05KT 9999 FEW040 BKN080
TEMPO 2306/2406 20012KT